YVZ weather

Deer Lake Airport
Deer Lake, Ontario, Canada

Public forecast

Using degrees Celsius for public forecast. Weather courtesy of forecast.io.

Closest aviation weather report (METAR) to Deer Lake Airport

Closest report is Sandy Lake Airport, 35.7 nm (66.2 km) NE. Retrieved 2020/06/05 02:34 UTC (27 minutes ago):

CZSJ 050234Z AUTO 06007KT 6SM BR OVC008 10/09 A2972 RMK SLP074

Closest aviation forecast (TAF) to Deer Lake Airport

Forecast is more than 12 hours old.

Closest forecast is Sandy Lake Airport, 35.7 nm (66.2 km) NE. Retrieved 2020/06/04 10:00 UTC (17 hours ago):

TAF CZSJ 040939Z 0410/0422 09010KT P6SM BKN080 OVC120 TEMPO 0410/0415 P6SM -SHRA FM041500 06005KT P6SM SCT012 OVC040 TEMPO 0415/0422 3SM -SHRA BR BKN012 OVC040 RMK FCST BASED ON AUTO OBS NXT FCST BY 041600Z